Time;durP1;ratioP1;P1;durP2;ratioP2;P2;SDS_P1;SDS_P2;PMS_P1;PMS_P2;Temp;Humidity;BMP_temperature;BMP_pressure;BME280_temperature;BME280_humidity;BME280_pressure;Samples;Min_cycle;Max_cycle;Signal;HPM_P1;HPM_P2
2023/05/13 00:02:07;;;;;;;7.37;3.20;;;;;;;;;;5094510;28;20538;-57
2023/05/13 00:04:34;;;;;;;4.33;3.93;;;;;;;;;;5094525;28;20453;-55
2023/05/13 00:07:04;;;;;;;6.67;3.43;;;;;;;;;;5094469;28;20939;-56
2023/05/13 00:09:31;;;;;;;4.87;3.77;;;;;;;;;;5094287;28;20503;-56
2023/05/13 00:11:58;;;;;;;6.20;3.57;;;;;;;;;;5094215;28;20547;-55
2023/05/13 00:14:25;;;;;;;5.97;3.70;;;;;;;;;;5094068;28;20455;-56
2023/05/13 00:16:51;;;;;;;4.43;3.80;;;;;;;;;;5093975;28;20806;-56
2023/05/13 00:19:18;;;;;;;4.30;3.77;;;;;;;;;;5094288;28;20447;-57
2023/05/13 00:21:46;;;;;;;4.37;3.97;;;;;;;;;;5094074;28;20490;-56
2023/05/13 00:24:14;;;;;;;4.63;3.83;;;;;;;;;;5094027;28;20814;-57
2023/05/13 00:26:41;;;;;;;4.10;3.70;;;;;;;;;;5093894;28;20443;-56
2023/05/13 00:29:08;;;;;;;6.13;3.60;;;;;;;;;;5093500;28;20491;-56
2023/05/13 00:31:35;;;;;;;3.60;3.30;;;;;;;;;;5093715;28;20453;-55
2023/05/13 00:34:03;;;;;;;4.67;3.40;;;;;;;;;;5093925;28;20545;-56
2023/05/13 00:36:29;;;;;;;4.07;3.70;;;;;;;;;;5093789;28;20509;-56
2023/05/13 00:38:57;;;;;;;5.53;4.23;;;;;;;;;;5093715;28;20550;-57
2023/05/13 00:41:25;;;;;;;5.10;4.33;;;;;;;;;;5093637;28;20546;-56
2023/05/13 00:43:55;;;;;;;6.70;3.97;;;;;;;;;;5093683;28;20493;-56
2023/05/13 00:46:22;;;;;;;5.83;3.97;;;;;;;;;;5093713;28;20478;-57
2023/05/13 00:48:49;;;;;;;7.07;3.53;;;;;;;;;;5093527;28;20455;-56
2023/05/13 00:51:16;;;;;;;4.10;3.80;;;;;;;;;;5093514;28;20440;-57
2023/05/13 00:53:43;;;;;;;5.00;3.80;;;;;;;;;;5093460;28;20871;-56
2023/05/13 00:56:10;;;;;;;4.00;3.70;;;;;;;;;;5093291;28;20926;-56
2023/05/13 00:58:38;;;;;;;4.00;3.70;;;;;;;;;;5093256;28;20447;-57
2023/05/13 01:01:10;;;;;;;6.00;3.70;;;;;;;;;;5093677;28;20541;-57
2023/05/13 01:03:44;;;;;;;5.33;3.57;;;;;;;;;;5093502;28;21018;-56
2023/05/13 01:06:13;;;;;;;4.40;4.00;;;;;;;;;;5093366;28;20454;-56
2023/05/13 01:08:44;;;;;;;4.00;3.60;;;;;;;;;;5093086;28;20458;-57
2023/05/13 01:11:13;;;;;;;5.13;3.63;;;;;;;;;;5093643;28;20452;-56
2023/05/13 01:13:42;;;;;;;10.17;4.17;;;;;;;;;;5093337;28;20947;-56
2023/05/13 01:16:16;;;;;;;6.53;4.43;;;;;;;;;;5093237;28;20807;-56
2023/05/13 01:18:45;;;;;;;4.10;3.80;;;;;;;;;;5093229;28;20844;-55
2023/05/13 01:21:12;;;;;;;4.30;3.70;;;;;;;;;;5093021;28;20504;-57
2023/05/13 01:23:40;;;;;;;5.60;3.93;;;;;;;;;;5092970;28;20532;-55
2023/05/13 01:26:07;;;;;;;6.07;4.20;;;;;;;;;;5093174;28;20452;-57
2023/05/13 01:28:34;;;;;;;4.13;3.83;;;;;;;;;;5093068;28;20479;-56
2023/05/13 01:31:01;;;;;;;3.80;3.33;;;;;;;;;;5092966;28;20483;-56
2023/05/13 01:33:28;;;;;;;7.77;3.83;;;;;;;;;;5092922;28;20450;-57
2023/05/13 01:35:55;;;;;;;6.20;4.57;;;;;;;;;;5092822;28;20513;-57
2023/05/13 01:38:23;;;;;;;5.13;4.20;;;;;;;;;;5093066;28;20465;-56
2023/05/13 01:40:51;;;;;;;4.80;4.10;;;;;;;;;;5093998;28;20617;-55
2023/05/13 01:43:18;;;;;;;4.53;3.90;;;;;;;;;;5097204;28;20451;-56
2023/05/13 01:45:45;;;;;;;5.70;3.97;;;;;;;;;;5096960;28;20534;-56
2023/05/13 01:48:12;;;;;;;6.07;4.20;;;;;;;;;;5096925;28;20446;-56
2023/05/13 01:50:39;;;;;;;4.73;4.23;;;;;;;;;;5096833;28;20969;-56
2023/05/13 01:53:06;;;;;;;4.47;3.63;;;;;;;;;;5097011;28;20457;-56
2023/05/13 01:55:33;;;;;;;5.07;4.57;;;;;;;;;;5096949;28;20454;-56
2023/05/13 01:58:01;;;;;;;4.33;3.93;;;;;;;;;;5096863;28;20888;-56
2023/05/13 02:00:28;;;;;;;4.33;3.93;;;;;;;;;;5096703;28;20561;-57
2023/05/13 02:02:55;;;;;;;4.70;4.30;;;;;;;;;;5096644;28;20422;-55
2023/05/13 02:05:22;;;;;;;5.63;3.83;;;;;;;;;;5096824;28;20447;-58
2023/05/13 02:07:49;;;;;;;4.33;4.03;;;;;;;;;;5096782;28;20454;-56
2023/05/13 02:10:16;;;;;;;4.10;3.70;;;;;;;;;;5096537;28;20482;-57
2023/05/13 02:12:43;;;;;;;6.63;4.37;;;;;;;;;;5096645;28;20452;-56
2023/05/13 02:15:13;;;;;;;5.47;4.47;;;;;;;;;;5096749;28;20973;-56
2023/05/13 02:17:39;;;;;;;9.10;4.40;;;;;;;;;;5096352;28;20450;-56
2023/05/13 02:20:07;;;;;;;5.80;4.20;;;;;;;;;;5096392;28;21009;-56
2023/05/13 02:22:34;;;;;;;5.43;4.17;;;;;;;;;;5096753;28;20422;-56
2023/05/13 02:25:01;;;;;;;4.60;4.10;;;;;;;;;;5096705;28;20453;-57
2023/05/13 02:27:28;;;;;;;4.80;4.40;;;;;;;;;;5096306;28;20538;-56
2023/05/13 02:29:55;;;;;;;4.50;4.10;;;;;;;;;;5096128;28;20921;-56
2023/05/13 02:32:23;;;;;;;4.87;4.33;;;;;;;;;;5096440;28;20518;-56
2023/05/13 02:34:50;;;;;;;12.83;3.77;;;;;;;;;;5096388;28;20485;-56
2023/05/13 02:37:17;;;;;;;4.40;4.00;;;;;;;;;;5096052;28;20436;-57
2023/05/13 02:39:44;;;;;;;4.80;4.40;;;;;;;;;;5096144;28;20425;-56
2023/05/13 02:42:11;;;;;;;4.27;3.80;;;;;;;;;;5096041;28;20467;-56
2023/05/13 02:44:39;;;;;;;5.83;4.30;;;;;;;;;;5095910;28;20427;-56
2023/05/13 02:47:06;;;;;;;8.63;4.70;;;;;;;;;;5096047;28;20447;-57
2023/05/13 02:49:34;;;;;;;5.30;4.80;;;;;;;;;;5095955;28;20470;-55
2023/05/13 02:52:01;;;;;;;4.40;4.00;;;;;;;;;;5095730;28;20539;-57
2023/05/13 02:54:28;;;;;;;5.00;4.47;;;;;;;;;;5095796;28;20446;-56
2023/05/13 02:56:55;;;;;;;4.50;4.10;;;;;;;;;;5095774;28;20853;-56
2023/05/13 02:59:21;;;;;;;5.40;4.80;;;;;;;;;;5095592;28;20530;-54
2023/05/13 03:01:48;;;;;;;6.80;4.53;;;;;;;;;;5095775;28;20446;-55
2023/05/13 03:04:15;;;;;;;4.20;3.90;;;;;;;;;;5095712;28;20451;-56
2023/05/13 03:06:44;;;;;;;5.17;4.70;;;;;;;;;;5095605;28;20460;-56
2023/05/13 03:09:11;;;;;;;5.50;4.07;;;;;;;;;;5095475;28;20449;-57
2023/05/13 03:11:37;;;;;;;6.60;4.73;;;;;;;;;;5095640;28;20464;-55
2023/05/13 03:14:04;;;;;;;4.63;4.23;;;;;;;;;;5095440;28;20461;-56
2023/05/13 03:16:31;;;;;;;6.83;4.50;;;;;;;;;;5095503;28;20450;-56
2023/05/13 03:18:58;;;;;;;4.93;4.53;;;;;;;;;;5095375;28;20425;-56
2023/05/13 03:21:25;;;;;;;5.97;4.23;;;;;;;;;;5095343;28;20803;-56
2023/05/13 03:23:54;;;;;;;4.60;4.30;;;;;;;;;;5095237;28;20431;-56
2023/05/13 03:26:21;;;;;;;4.87;4.40;;;;;;;;;;5095047;28;20977;-56
2023/05/13 03:28:48;;;;;;;5.87;4.17;;;;;;;;;;5095002;28;20451;-57
2023/05/13 03:31:15;;;;;;;5.60;4.00;;;;;;;;;;5095203;28;20482;-56
2023/05/13 03:33:42;;;;;;;6.23;4.70;;;;;;;;;;5095252;28;20428;-54
2023/05/13 03:36:10;;;;;;;8.80;4.60;;;;;;;;;;5095169;28;20446;-58
2023/05/13 03:38:36;;;;;;;6.87;4.40;;;;;;;;;;5095040;28;20418;-57
2023/05/13 03:41:05;;;;;;;4.73;4.27;;;;;;;;;;5094934;28;20449;-56
2023/05/13 03:43:32;;;;;;;4.90;4.50;;;;;;;;;;5095012;28;20872;-57
2023/05/13 03:45:59;;;;;;;6.00;4.00;;;;;;;;;;5094950;28;20425;-57
2023/05/13 03:48:26;;;;;;;5.53;4.60;;;;;;;;;;5094825;28;20421;-55
2023/05/13 03:50:53;;;;;;;6.37;4.00;;;;;;;;;;5094646;28;20555;-55
2023/05/13 03:53:21;;;;;;;6.23;5.30;;;;;;;;;;5094639;28;20476;-57
2023/05/13 03:55:48;;;;;;;5.00;4.27;;;;;;;;;;5094783;28;20453;-58
2023/05/13 03:58:17;;;;;;;5.20;4.57;;;;;;;;;;5094691;28;20421;-57
2023/05/13 04:00:45;;;;;;;4.60;4.20;;;;;;;;;;5094428;28;20954;-55
2023/05/13 04:03:12;;;;;;;8.50;4.83;;;;;;;;;;5093976;28;20987;-57
2023/05/13 04:05:39;;;;;;;4.30;4.00;;;;;;;;;;5094492;28;20533;-56
2023/05/13 04:08:06;;;;;;;4.87;4.40;;;;;;;;;;5094544;28;20538;-56
2023/05/13 04:10:33;;;;;;;8.27;5.50;;;;;;;;;;5094438;28;20554;-57
2023/05/13 04:13:00;;;;;;;4.53;4.13;;;;;;;;;;5094465;28;20857;-56
2023/05/13 04:15:28;;;;;;;7.60;5.20;;;;;;;;;;5094272;28;20422;-57
2023/05/13 04:17:55;;;;;;;5.10;4.57;;;;;;;;;;5094265;28;20421;-56
2023/05/13 04:20:24;;;;;;;5.83;4.70;;;;;;;;;;5094076;28;20455;-55
2023/05/13 04:22:51;;;;;;;9.17;4.73;;;;;;;;;;5094281;28;20459;-56
2023/05/13 04:25:18;;;;;;;5.03;4.47;;;;;;;;;;5094231;28;20425;-57
2023/05/13 04:27:46;;;;;;;6.17;5.00;;;;;;;;;;5094121;28;20447;-56
2023/05/13 04:30:14;;;;;;;4.80;4.20;;;;;;;;;;5094091;28;21033;-57
2023/05/13 04:32:43;;;;;;;5.70;5.17;;;;;;;;;;5093880;28;20512;-57
2023/05/13 04:35:12;;;;;;;4.90;4.50;;;;;;;;;;5093713;28;20432;-57
2023/05/13 04:37:39;;;;;;;5.13;4.70;;;;;;;;;;5093943;28;20453;-57
2023/05/13 04:40:06;;;;;;;5.97;4.67;;;;;;;;;;5093805;28;21002;-56
2023/05/13 04:42:35;;;;;;;5.33;4.90;;;;;;;;;;5093637;28;20511;-56
2023/05/13 04:45:02;;;;;;;5.67;5.17;;;;;;;;;;5093786;28;20418;-56
2023/05/13 04:47:29;;;;;;;6.13;4.60;;;;;;;;;;5094110;28;20516;-56
2023/05/13 04:49:57;;;;;;;4.57;4.07;;;;;;;;;;5093534;28;20421;-56
2023/05/13 04:52:24;;;;;;;6.90;4.03;;;;;;;;;;5093727;28;20508;-55
2023/05/13 04:54:51;;;;;;;4.90;4.50;;;;;;;;;;5093625;28;20886;-56
2023/05/13 04:57:17;;;;;;;5.17;4.67;;;;;;;;;;5093610;28;20432;-56
2023/05/13 04:59:44;;;;;;;7.17;5.10;;;;;;;;;;5093512;28;20446;-56
2023/05/13 05:02:11;;;;;;;5.50;4.10;;;;;;;;;;5093348;28;20546;-57
2023/05/13 05:04:38;;;;;;;5.83;4.77;;;;;;;;;;5093335;28;20939;-57
2023/05/13 05:07:06;;;;;;;4.80;4.30;;;;;;;;;;5093532;28;20512;-56
2023/05/13 05:09:33;;;;;;;4.67;4.27;;;;;;;;;;5093395;28;20456;-56
2023/05/13 05:12:00;;;;;;;5.20;4.53;;;;;;;;;;5093176;28;20491;-55
2023/05/13 05:14:27;;;;;;;4.80;4.37;;;;;;;;;;5093028;28;20482;-56
2023/05/13 05:16:54;;;;;;;5.30;4.50;;;;;;;;;;5092449;28;20547;-55
2023/05/13 05:19:22;;;;;;;5.50;4.50;;;;;;;;;;5093312;28;20901;-57
2023/05/13 05:21:49;;;;;;;6.77;4.40;;;;;;;;;;5093264;28;20429;-56
2023/05/13 05:24:17;;;;;;;5.00;4.57;;;;;;;;;;5093277;28;20523;-57
2023/05/13 05:26:44;;;;;;;7.77;4.67;;;;;;;;;;5093167;28;20457;-54
2023/05/13 05:29:11;;;;;;;5.23;4.73;;;;;;;;;;5093006;28;20534;-56
2023/05/13 05:31:38;;;;;;;4.63;4.23;;;;;;;;;;5093128;28;20478;-58
2023/05/13 05:34:05;;;;;;;11.73;4.53;;;;;;;;;;5093174;28;20520;-57
2023/05/13 05:36:32;;;;;;;7.97;3.90;;;;;;;;;;5092972;28;20455;-57
2023/05/13 05:38:59;;;;;;;8.43;4.30;;;;;;;;;;5092981;28;20540;-57
2023/05/13 05:41:28;;;;;;;4.53;4.20;;;;;;;;;;5092685;28;20876;-57
2023/05/13 05:43:56;;;;;;;6.80;4.80;;;;;;;;;;5092913;28;20450;-57
2023/05/13 05:46:23;;;;;;;8.33;4.40;;;;;;;;;;5092770;28;21028;-57
2023/05/13 05:48:50;;;;;;;5.70;3.93;;;;;;;;;;5092922;28;20874;-57
2023/05/13 05:51:17;;;;;;;5.63;3.53;;;;;;;;;;5092785;28;20478;-57
2023/05/13 05:53:44;;;;;;;5.27;3.97;;;;;;;;;;5092664;28;20452;-56
2023/05/13 05:56:11;;;;;;;4.57;4.17;;;;;;;;;;5092604;28;20884;-57
2023/05/13 05:58:39;;;;;;;9.53;7.03;;;;;;;;;;5092622;28;20473;-57
2023/05/13 06:01:06;;;;;;;4.93;4.43;;;;;;;;;;5092831;28;20451;-57
2023/05/13 06:03:35;;;;;;;4.10;3.80;;;;;;;;;;5092723;28;20520;-57
2023/05/13 06:06:02;;;;;;;5.07;4.20;;;;;;;;;;5092593;28;20962;-56
2023/05/13 06:08:29;;;;;;;4.60;3.83;;;;;;;;;;5093055;28;20747;-56
2023/05/13 06:10:56;;;;;;;3.83;3.53;;;;;;;;;;5092396;28;20471;-57
2023/05/13 06:13:23;;;;;;;5.03;3.90;;;;;;;;;;5092728;28;20870;-57
2023/05/13 06:15:52;;;;;;;6.00;4.13;;;;;;;;;;5092693;28;20546;-57
2023/05/13 06:18:18;;;;;;;6.27;4.57;;;;;;;;;;5092512;28;20454;-57
2023/05/13 06:20:45;;;;;;;8.63;4.50;;;;;;;;;;5092522;28;20561;-55
2023/05/13 06:23:14;;;;;;;5.87;3.70;;;;;;;;;;5092489;28;20836;-57
2023/05/13 06:25:41;;;;;;;5.70;4.60;;;;;;;;;;5092296;28;20448;-57
2023/05/13 06:28:08;;;;;;;5.23;4.53;;;;;;;;;;5095614;28;20478;-56
2023/05/13 06:30:35;;;;;;;4.20;3.80;;;;;;;;;;5096019;28;20534;-56
2023/05/13 06:33:04;;;;;;;6.10;4.50;;;;;;;;;;5096236;28;20537;-55
2023/05/13 06:35:31;;;;;;;7.00;3.67;;;;;;;;;;5096100;28;20868;-56
2023/05/13 06:37:57;;;;;;;8.17;3.90;;;;;;;;;;5095984;28;20479;-55
2023/05/13 06:40:24;;;;;;;7.47;4.23;;;;;;;;;;5096154;28;20479;-56
2023/05/13 06:42:51;;;;;;;5.77;3.57;;;;;;;;;;5095708;28;20511;-57
2023/05/13 06:45:21;;;;;;;3.90;3.60;;;;;;;;;;5096036;28;20822;-55
2023/05/13 06:47:48;;;;;;;4.30;3.80;;;;;;;;;;5095923;28;20807;-55
2023/05/13 06:50:18;;;;;;;3.80;3.47;;;;;;;;;;5095768;28;20423;-56
2023/05/13 06:52:45;;;;;;;4.30;3.57;;;;;;;;;;5095624;28;20559;-56
2023/05/13 06:55:12;;;;;;;3.87;3.40;;;;;;;;;;5095897;28;20862;-57
2023/05/13 06:57:39;;;;;;;8.30;3.30;;;;;;;;;;5095595;28;20942;-57
2023/05/13 07:00:07;;;;;;;7.97;4.20;;;;;;;;;;5095667;28;20457;-57
2023/05/13 07:02:34;;;;;;;5.50;3.23;;;;;;;;;;5095619;28;20544;-57
2023/05/13 07:05:01;;;;;;;4.83;3.40;;;;;;;;;;5095478;28;20430;-56
2023/05/13 07:07:29;;;;;;;5.20;3.33;;;;;;;;;;5095640;28;20460;-58
2023/05/13 07:09:56;;;;;;;5.30;3.80;;;;;;;;;;5095578;28;20455;-57
2023/05/13 07:12:23;;;;;;;3.73;3.27;;;;;;;;;;5095435;28;20483;-57
2023/05/13 07:14:49;;;;;;;6.13;3.77;;;;;;;;;;5095320;28;20447;-57
2023/05/13 07:17:17;;;;;;;3.83;3.10;;;;;;;;;;5095340;28;20830;-57
2023/05/13 07:19:44;;;;;;;4.13;3.00;;;;;;;;;;5095175;28;20451;-58
2023/05/13 07:22:11;;;;;;;3.50;3.07;;;;;;;;;;5095407;28;20523;-57
2023/05/13 07:24:40;;;;;;;3.33;2.97;;;;;;;;;;5095090;28;20951;-56
2023/05/13 07:27:07;;;;;;;3.60;2.93;;;;;;;;;;5095139;28;20449;-57
2023/05/13 07:29:34;;;;;;;6.03;3.07;;;;;;;;;;5095095;28;20482;-56
2023/05/13 07:32:04;;;;;;;3.17;2.97;;;;;;;;;;5094970;28;20479;-60
2023/05/13 07:34:32;;;;;;;7.50;3.03;;;;;;;;;;5095155;28;20448;-56
2023/05/13 07:36:59;;;;;;;4.30;2.93;;;;;;;;;;5094978;28;20452;-57
2023/05/13 07:39:26;;;;;;;2.73;2.50;;;;;;;;;;5093822;28;20459;-57
2023/05/13 07:41:54;;;;;;;9.87;3.43;;;;;;;;;;5094721;28;20488;-56
2023/05/13 07:44:21;;;;;;;3.93;3.57;;;;;;;;;;5094744;28;20532;-56
2023/05/13 07:46:48;;;;;;;3.47;3.13;;;;;;;;;;5094563;28;20459;-57
2023/05/13 07:49:15;;;;;;;4.10;2.90;;;;;;;;;;5094848;28;20851;-56
2023/05/13 07:51:42;;;;;;;3.67;2.80;;;;;;;;;;5094771;28;20472;-57
2023/05/13 07:54:09;;;;;;;4.97;2.70;;;;;;;;;;5094761;28;20450;-57
2023/05/13 07:56:37;;;;;;;4.37;2.93;;;;;;;;;;5094688;28;20455;-57
2023/05/13 07:59:05;;;;;;;3.30;3.10;;;;;;;;;;5094555;28;20500;-58
2023/05/13 08:01:32;;;;;;;5.33;3.30;;;;;;;;;;5094353;28;20457;-57
2023/05/13 08:03:59;;;;;;;3.13;2.80;;;;;;;;;;5094554;28;20449;-56
2023/05/13 08:06:26;;;;;;;13.13;5.00;;;;;;;;;;5094517;28;20499;-58
2023/05/13 08:08:53;;;;;;;8.83;3.57;;;;;;;;;;5094443;28;20462;-57
2023/05/13 08:11:20;;;;;;;8.13;3.73;;;;;;;;;;5094299;28;20539;-57
2023/05/13 08:13:47;;;;;;;4.20;3.10;;;;;;;;;;5094163;28;20851;-57
2023/05/13 08:16:15;;;;;;;3.57;3.27;;;;;;;;;;5094287;28;20452;-58
2023/05/13 08:18:42;;;;;;;4.03;3.20;;;;;;;;;;5094098;28;20978;-57
2023/05/13 08:21:09;;;;;;;4.80;3.53;;;;;;;;;;5094153;28;20453;-57
2023/05/13 08:23:36;;;;;;;3.37;2.63;;;;;;;;;;5094107;28;20499;-56
2023/05/13 08:26:06;;;;;;;4.63;2.80;;;;;;;;;;5093903;28;20541;-56
2023/05/13 08:28:33;;;;;;;3.80;3.40;;;;;;;;;;5094102;28;20448;-56
2023/05/13 08:31:02;;;;;;;4.60;3.10;;;;;;;;;;5093771;28;21001;-56
2023/05/13 08:33:30;;;;;;;3.30;3.00;;;;;;;;;;5093837;28;20481;-56
2023/05/13 08:35:58;;;;;;;4.17;3.20;;;;;;;;;;5093932;28;20804;-56
2023/05/13 08:38:25;;;;;;;4.53;3.57;;;;;;;;;;5093802;28;20458;-57
2023/05/13 08:40:52;;;;;;;3.30;2.83;;;;;;;;;;5093446;28;20506;-57
2023/05/13 08:43:22;;;;;;;3.70;3.40;;;;;;;;;;5093699;28;20458;-57
2023/05/13 08:45:54;;;;;;;3.97;3.53;;;;;;;;;;5093740;28;20536;-55
2023/05/13 08:48:22;;;;;;;4.43;3.43;;;;;;;;;;5093805;28;20541;-56
2023/05/13 08:50:50;;;;;;;3.17;2.97;;;;;;;;;;5093460;28;20454;-57
2023/05/13 08:53:18;;;;;;;3.70;3.40;;;;;;;;;;5093332;28;20581;-58
2023/05/13 08:55:45;;;;;;;4.27;2.50;;;;;;;;;;5093474;28;20944;-56
2023/05/13 08:58:12;;;;;;;3.10;2.80;;;;;;;;;;5093631;28;20889;-56
2023/05/13 09:00:39;;;;;;;3.00;2.50;;;;;;;;;;5093566;28;20454;-56
2023/05/13 09:03:06;;;;;;;2.90;2.70;;;;;;;;;;5093520;28;20562;-57
2023/05/13 09:05:33;;;;;;;2.63;2.40;;;;;;;;;;5093353;28;20477;-56
2023/05/13 09:08:02;;;;;;;10.23;3.40;;;;;;;;;;5093189;28;20546;-56
2023/05/13 09:10:29;;;;;;;3.10;2.17;;;;;;;;;;5093470;28;20443;-56
2023/05/13 09:12:57;;;;;;;2.43;2.33;;;;;;;;;;5093288;28;20492;-57
2023/05/13 09:15:25;;;;;;;8.60;3.73;;;;;;;;;;5093293;28;20449;-57
2023/05/13 09:17:53;;;;;;;2.80;2.60;;;;;;;;;;5093191;28;20537;-58
2023/05/13 09:20:20;;;;;;;2.60;2.40;;;;;;;;;;5093101;28;20446;-58
2023/05/13 09:22:47;;;;;;;8.70;2.40;;;;;;;;;;5092961;28;20946;-57
2023/05/13 09:25:17;;;;;;;5.10;2.07;;;;;;;;;;5093339;28;20896;-57
2023/05/13 09:27:44;;;;;;;7.73;2.77;;;;;;;;;;5092899;28;20443;-57
2023/05/13 09:30:14;;;;;;;6.90;2.50;;;;;;;;;;5093082;28;20893;-58
2023/05/13 09:32:41;;;;;;;2.27;2.07;;;;;;;;;;5092941;28;20467;-57
2023/05/13 09:35:09;;;;;;;4.67;2.80;;;;;;;;;;5092843;28;20447;-57
2023/05/13 09:37:36;;;;;;;3.20;2.13;;;;;;;;;;5092920;28;20461;-57
2023/05/13 09:40:03;;;;;;;11.20;3.47;;;;;;;;;;5093064;28;20450;-58
2023/05/13 09:42:32;;;;;;;2.90;2.40;;;;;;;;;;5092700;28;20566;-57
2023/05/13 09:45:05;;;;;;;4.47;2.50;;;;;;;;;;5092787;28;20464;-56
2023/05/13 09:47:32;;;;;;;3.73;2.23;;;;;;;;;;5092790;28;20447;-57
2023/05/13 09:50:01;;;;;;;4.80;2.73;;;;;;;;;;5093075;28;20449;-59
2023/05/13 09:52:29;;;;;;;9.50;2.80;;;;;;;;;;5092951;28;20837;-57
2023/05/13 09:54:57;;;;;;;5.80;2.47;;;;;;;;;;5092871;28;20538;-58
2023/05/13 09:57:24;;;;;;;2.40;2.20;;;;;;;;;;5092869;28;20469;-58
2023/05/13 09:59:52;;;;;;;5.37;2.37;;;;;;;;;;5092608;28;20530;-57
2023/05/13 10:02:19;;;;;;;4.40;2.23;;;;;;;;;;5094588;28;20448;-58
2023/05/13 10:04:46;;;;;;;2.40;2.30;;;;;;;;;;5096678;28;20443;-57
2023/05/13 10:07:13;;;;;;;2.23;2.13;;;;;;;;;;5096872;28;20443;-58
2023/05/13 10:09:41;;;;;;;3.23;2.30;;;;;;;;;;5096801;28;20521;-57
2023/05/13 10:12:08;;;;;;;11.50;3.23;;;;;;;;;;5096445;28;20449;-58
2023/05/13 10:14:36;;;;;;;2.33;2.13;;;;;;;;;;5096386;28;20447;-59
2023/05/13 10:17:05;;;;;;;4.43;2.53;;;;;;;;;;5096761;28;20456;-58
2023/05/13 10:19:32;;;;;;;1.83;1.73;;;;;;;;;;5096626;28;20453;-58
2023/05/13 10:21:59;;;;;;;2.53;2.20;;;;;;;;;;5096587;28;20536;-58
2023/05/13 10:24:27;;;;;;;2.37;2.27;;;;;;;;;;5096479;28;20446;-58
2023/05/13 10:26:55;;;;;;;5.90;2.53;;;;;;;;;;5096160;28;20501;-58
2023/05/13 10:29:23;;;;;;;2.87;2.27;;;;;;;;;;5096120;28;20553;-58
2023/05/13 10:31:50;;;;;;;10.50;2.60;;;;;;;;;;5096309;28;20460;-59
2023/05/13 10:34:19;;;;;;;4.87;2.03;;;;;;;;;;5096270;28;20569;-58
2023/05/13 10:36:51;;;;;;;3.50;2.83;;;;;;;;;;5096162;28;20451;-58
2023/05/13 10:39:24;;;;;;;4.33;2.03;;;;;;;;;;5096144;28;20449;-58
2023/05/13 10:42:04;;;;;;;11.10;3.00;;;;;;;;;;5095727;28;20523;-58
2023/05/13 10:44:32;;;;;;;12.83;2.50;;;;;;;;;;5096170;28;20450;-57
2023/05/13 10:46:59;;;;;;;3.10;2.10;;;;;;;;;;5096021;28;20774;-58
2023/05/13 10:49:33;;;;;;;4.27;2.10;;;;;;;;;;5095908;28;20447;-58
2023/05/13 10:52:04;;;;;;;6.13;2.60;;;;;;;;;;5095775;28;20451;-59
2023/05/13 10:54:37;;;;;;;3.23;2.37;;;;;;;;;;5095668;28;20514;-58
2023/05/13 10:57:04;;;;;;;6.67;3.73;;;;;;;;;;5095846;28;20496;-58
2023/05/13 10:59:32;;;;;;;3.30;2.60;;;;;;;;;;5095741;28;20469;-58
2023/05/13 11:02:02;;;;;;;5.03;2.17;;;;;;;;;;5095651;28;20455;-58
2023/05/13 11:04:30;;;;;;;2.10;2.00;;;;;;;;;;5095579;28;20459;-58
2023/05/13 11:07:14;;;;;;;8.03;2.63;;;;;;;;;;5095635;28;20447;-57
2023/05/13 11:09:41;;;;;;;2.07;1.87;;;;;;;;;;5095685;28;20534;-58
2023/05/13 11:12:15;;;;;;;2.87;2.23;;;;;;;;;;5095400;28;20889;-57
2023/05/13 11:14:43;;;;;;;2.47;2.23;;;;;;;;;;5095296;28;20460;-57
2023/05/13 11:17:11;;;;;;;3.17;2.40;;;;;;;;;;5095155;28;20450;-58
2023/05/13 11:19:40;;;;;;;3.10;2.13;;;;;;;;;;5095507;28;20788;-58
2023/05/13 11:22:10;;;;;;;4.17;2.27;;;;;;;;;;5095478;28;20447;-57
2023/05/13 11:24:37;;;;;;;4.20;1.93;;;;;;;;;;5095179;28;20449;-58
2023/05/13 11:27:14;;;;;;;5.63;1.60;;;;;;;;;;5095132;28;20972;-57
2023/05/13 11:29:48;;;;;;;4.27;2.20;;;;;;;;;;5095097;28;20450;-58
2023/05/13 11:32:14;;;;;;;7.03;2.50;;;;;;;;;;5095243;28;20443;-57
2023/05/13 11:34:50;;;;;;;6.30;2.30;;;;;;;;;;5095050;28;20483;-57
2023/05/13 11:37:17;;;;;;;3.27;2.00;;;;;;;;;;5094911;28;20537;-57
2023/05/13 11:39:44;;;;;;;3.97;2.17;;;;;;;;;;5094679;28;20489;-58
2023/05/13 11:42:11;;;;;;;7.97;2.20;;;;;;;;;;5094508;28;20829;-57
2023/05/13 11:44:45;;;;;;;4.07;2.20;;;;;;;;;;5094851;28;20453;-58
2023/05/13 11:47:12;;;;;;;4.07;2.27;;;;;;;;;;5094792;28;20462;-58
2023/05/13 11:49:39;;;;;;;3.03;2.63;;;;;;;;;;5094660;28;20868;-58
2023/05/13 11:52:09;;;;;;;2.60;2.40;;;;;;;;;;5094631;28;20447;-58
2023/05/13 11:54:42;;;;;;;2.33;1.70;;;;;;;;;;5094295;28;20492;-58
2023/05/13 11:57:19;;;;;;;3.50;2.17;;;;;;;;;;5094716;28;20443;-58
2023/05/13 11:59:49;;;;;;;3.20;1.90;;;;;;;;;;5094642;28;20635;-58
2023/05/13 12:02:16;;;;;;;2.33;2.13;;;;;;;;;;5094534;28;20889;-58
2023/05/13 12:04:44;;;;;;;2.37;2.17;;;;;;;;;;5094427;28;20455;-58
2023/05/13 12:07:13;;;;;;;3.40;2.40;;;;;;;;;;5094135;28;20965;-58
2023/05/13 12:09:39;;;;;;;5.20;2.30;;;;;;;;;;5094476;28;20890;-59
2023/05/13 12:12:09;;;;;;;3.20;2.30;;;;;;;;;;5094340;28;20658;-58
2023/05/13 12:14:36;;;;;;;4.47;2.30;;;;;;;;;;5094160;28;20489;-58
2023/05/13 12:17:10;;;;;;;2.20;2.00;;;;;;;;;;5093990;28;20447;-58
2023/05/13 12:19:37;;;;;;;5.13;2.33;;;;;;;;;;5094103;28;20838;-59
2023/05/13 12:22:05;;;;;;;5.20;2.20;;;;;;;;;;5094249;28;20458;-59
2023/05/13 12:24:34;;;;;;;3.77;2.30;;;;;;;;;;5093542;28;20550;-58
2023/05/13 12:27:05;;;;;;;4.30;2.80;;;;;;;;;;5093769;28;20964;-58
2023/05/13 12:29:44;;;;;;;10.00;2.90;;;;;;;;;;5093805;28;20949;-57
2023/05/13 12:32:11;;;;;;;6.13;2.83;;;;;;;;;;5093955;28;20533;-58
2023/05/13 12:34:38;;;;;;;6.10;2.83;;;;;;;;;;5093924;28;20483;-58
2023/05/13 12:37:14;;;;;;;2.93;2.30;;;;;;;;;;5093932;28;20453;-57
2023/05/13 12:39:44;;;;;;;6.03;2.20;;;;;;;;;;5093802;28;20507;-57
2023/05/13 12:42:14;;;;;;;4.63;2.17;;;;;;;;;;5093488;28;20475;-57
2023/05/13 12:44:42;;;;;;;3.13;2.83;;;;;;;;;;5093496;28;20477;-58
2023/05/13 12:47:09;;;;;;;2.77;2.47;;;;;;;;;;5093822;28;20443;-58
2023/05/13 12:49:36;;;;;;;3.00;2.23;;;;;;;;;;5093597;28;20459;-58
2023/05/13 12:52:04;;;;;;;4.47;2.67;;;;;;;;;;5093435;28;20516;-57
2023/05/13 12:54:35;;;;;;;2.73;2.50;;;;;;;;;;5093419;28;20494;-58
2023/05/13 12:57:08;;;;;;;7.07;3.10;;;;;;;;;;5093307;28;20818;-58
2023/05/13 12:59:36;;;;;;;2.70;2.13;;;;;;;;;;5093345;28;20504;-58
2023/05/13 13:02:03;;;;;;;2.73;2.47;;;;;;;;;;5093465;28;20554;-57
2023/05/13 13:04:29;;;;;;;4.10;3.20;;;;;;;;;;5093441;28;20454;-58
2023/05/13 13:06:56;;;;;;;4.67;2.40;;;;;;;;;;5093253;28;20945;-58
2023/05/13 13:09:23;;;;;;;6.43;2.30;;;;;;;;;;5093251;28;20455;-58
2023/05/13 13:11:51;;;;;;;3.87;2.93;;;;;;;;;;5093193;28;20968;-58
2023/05/13 13:14:19;;;;;;;2.47;2.23;;;;;;;;;;5093285;28;20474;-58
2023/05/13 13:16:46;;;;;;;4.47;2.27;;;;;;;;;;5093321;28;20889;-59
2023/05/13 13:19:13;;;;;;;9.97;3.50;;;;;;;;;;5093290;28;20903;-57
2023/05/13 13:21:40;;;;;;;3.30;2.67;;;;;;;;;;5093116;28;20604;-58
2023/05/13 13:24:07;;;;;;;4.20;3.80;;;;;;;;;;5093000;28;20458;-59
2023/05/13 13:26:34;;;;;;;5.83;2.73;;;;;;;;;;5093059;28;20451;-57
2023/05/13 13:29:01;;;;;;;8.90;2.60;;;;;;;;;;5093094;28;20458;-57
2023/05/13 13:31:29;;;;;;;2.33;2.10;;;;;;;;;;5092919;28;20447;-58
2023/05/13 13:34:02;;;;;;;4.10;2.53;;;;;;;;;;5092626;28;20974;-58
2023/05/13 13:36:30;;;;;;;3.40;2.90;;;;;;;;;;5091839;28;20498;-58
2023/05/13 13:38:57;;;;;;;2.80;2.60;;;;;;;;;;5092795;28;20473;-58
2023/05/13 13:41:25;;;;;;;3.00;2.80;;;;;;;;;;5092786;28;20884;-58
2023/05/13 13:43:52;;;;;;;3.67;2.70;;;;;;;;;;5092799;28;20443;-58
2023/05/13 13:46:18;;;;;;;7.20;2.80;;;;;;;;;;5092917;28;20443;-58
2023/05/13 13:48:48;;;;;;;2.90;2.70;;;;;;;;;;5093187;28;20884;-58
2023/05/13 13:51:15;;;;;;;4.73;2.20;;;;;;;;;;5092756;28;20453;-58
2023/05/13 13:53:42;;;;;;;3.37;2.47;;;;;;;;;;5092823;28;20443;-60
2023/05/13 13:56:09;;;;;;;2.47;2.27;;;;;;;;;;5092888;28;20886;-58
2023/05/13 13:58:36;;;;;;;2.47;2.27;;;;;;;;;;5092670;28;20569;-58
2023/05/13 14:01:03;;;;;;;3.87;3.27;;;;;;;;;;5092695;28;20542;-57
2023/05/13 14:03:29;;;;;;;4.43;2.50;;;;;;;;;;5092633;28;20902;-58
2023/05/13 14:05:58;;;;;;;3.30;3.07;;;;;;;;;;5092551;28;20477;-58
2023/05/13 14:08:24;;;;;;;2.53;2.37;;;;;;;;;;5092532;28;20535;-58
2023/05/13 14:10:52;;;;;;;2.57;2.40;;;;;;;;;;5092827;28;20468;-58
2023/05/13 14:13:19;;;;;;;2.50;2.30;;;;;;;;;;5092648;28;20446;-58
2023/05/13 14:15:46;;;;;;;3.40;2.20;;;;;;;;;;5092498;28;20580;-58
2023/05/13 14:18:13;;;;;;;4.27;2.50;;;;;;;;;;5092626;28;20538;-60
2023/05/13 14:20:39;;;;;;;2.87;2.67;;;;;;;;;;5092476;28;20443;-58
2023/05/13 14:23:08;;;;;;;2.93;2.70;;;;;;;;;;5092692;28;20496;-58
2023/05/13 14:25:35;;;;;;;3.60;2.00;;;;;;;;;;5092580;28;20453;-58
2023/05/13 14:28:01;;;;;;;3.00;2.70;;;;;;;;;;5092706;28;21024;-58
2023/05/13 14:30:28;;;;;;;2.80;2.57;;;;;;;;;;5092558;28;20486;-58
2023/05/13 14:32:55;;;;;;;3.13;2.50;;;;;;;;;;5092481;28;20551;-59
2023/05/13 14:35:22;;;;;;;6.40;2.93;;;;;;;;;;5092571;28;20482;-59
2023/05/13 14:37:49;;;;;;;4.27;3.00;;;;;;;;;;5092628;28;20878;-58
2023/05/13 14:40:17;;;;;;;3.47;2.90;;;;;;;;;;5092578;28;20545;-58
2023/05/13 14:42:44;;;;;;;4.80;3.10;;;;;;;;;;5092147;28;20554;-58
2023/05/13 14:45:11;;;;;;;3.20;2.90;;;;;;;;;;5092427;28;20542;-58
2023/05/13 14:47:38;;;;;;;2.83;2.63;;;;;;;;;;5092943;28;20543;-58